Startpagina
METAR-TAF:

METAR-TAF

Vliegvelden :

Aeroporto di Bergamo-Orio al Serio

Bergamo, Italië

breedte: 45-40N, lengte: 009-42E, hoogte: 238 m

Actueel weer

Dit bericht is 37 minuten geleden gemaakt, om 02:20 UTC
Wind 3 kt uit het noorden
Temperatuur 21°C
Vochtigheid 78%
Druk 1018 hPa
Zicht 10 km of meer
Verspreide wolken op 9000 ft

METAR: LIME 260220Z 36003KT 9999 SCT090 21/17 Q1018 NOSIG

Tijdstip: 04:57 (02:57 UTC)

Verwachting

Dit bericht is 3 uur en het 57 minuten geleden gemaakt, om 23:00 UTC
Verwachting geldig van 26 om 00 UTC tot 26 om 24 UTC
Wind 5 kt uit variabele richting
Zicht 10 km of meer
Verspreide wolken op 7000 ft

TAF: LIME 252300Z 2600/2624 VRB05KT 9999 SCT070

Waarnemingen en weersverwachtingen van meer dan 4000 vliegvelden (METAR en TAF).

De beschikbare stations zijn de gele en rode punten op de kaart.

Ga met uw muis naar het station om de naam te zien.

Klik dan om waarnemingen en weersverwachtingen te zien.

kaart wijzigen: klik op de groene knoppen met een zwart kruis om in te zoomen, op de groene knop met een streepje om uit te zoomen of op de groene pijlen voor aangrenzende kaarten.


METAR-TAF: